sensor_id;sensor_type;location;lat;lon;timestamp;temperature;humidity
64939;DHT22;51453;47.738;7.420;2022-10-22T00:01:14;13.10;99.90
64939;DHT22;51453;47.738;7.420;2022-10-22T00:03:40;13.20;99.90
64939;DHT22;51453;47.738;7.420;2022-10-22T00:06:06;13.10;99.90
64939;DHT22;51453;47.738;7.420;2022-10-22T00:08:32;13.10;99.90
64939;DHT22;51453;47.738;7.420;2022-10-22T00:10:58;13.10;99.90
64939;DHT22;51453;47.738;7.420;2022-10-22T00:13:24;13.10;99.90
64939;DHT22;51453;47.738;7.420;2022-10-22T00:15:49;13.10;99.90
64939;DHT22;51453;47.738;7.420;2022-10-22T00:18:15;13.10;99.90
64939;DHT22;51453;47.738;7.420;2022-10-22T00:20:40;13.10;99.90
64939;DHT22;51453;47.738;7.420;2022-10-22T00:23:06;13.00;99.90
64939;DHT22;51453;47.738;7.420;2022-10-22T00:25:34;13.00;99.90
64939;DHT22;51453;47.738;7.420;2022-10-22T00:28:00;13.00;99.90
64939;DHT22;51453;47.738;7.420;2022-10-22T00:30:27;13.00;99.90
64939;DHT22;51453;47.738;7.420;2022-10-22T00:32:53;13.00;99.90
64939;DHT22;51453;47.738;7.420;2022-10-22T00:35:18;13.10;99.90
64939;DHT22;51453;47.738;7.420;2022-10-22T00:37:44;13.00;99.90
64939;DHT22;51453;47.738;7.420;2022-10-22T00:40:11;13.00;99.90
64939;DHT22;51453;47.738;7.420;2022-10-22T00:42:37;13.10;99.90
64939;DHT22;51453;47.738;7.420;2022-10-22T00:50:05;13.10;99.90
64939;DHT22;51453;47.738;7.420;2022-10-22T00:52:32;13.00;99.90
64939;DHT22;51453;47.738;7.420;2022-10-22T00:54:59;13.10;99.90
64939;DHT22;51453;47.738;7.420;2022-10-22T00:57:26;13.10;99.90
64939;DHT22;51453;47.738;7.420;2022-10-22T00:59:51;13.10;99.90
64939;DHT22;51453;47.738;7.420;2022-10-22T01:02:18;13.10;99.90
64939;DHT22;51453;47.738;7.420;2022-10-22T01:04:44;13.10;99.90
64939;DHT22;51453;47.738;7.420;2022-10-22T01:07:16;13.10;99.90
64939;DHT22;51453;47.738;7.420;2022-10-22T01:15:27;13.00;99.90
64939;DHT22;51453;47.738;7.420;2022-10-22T01:18:09;13.00;99.90
64939;DHT22;51453;47.738;7.420;2022-10-22T01:30:07;13.00;99.90
64939;DHT22;51453;47.738;7.420;2022-10-22T01:32:47;12.90;99.90
64939;DHT22;51453;47.738;7.420;2022-10-22T01:35:18;12.90;99.90
64939;DHT22;51453;47.738;7.420;2022-10-22T01:37:46;12.90;99.90
64939;DHT22;51453;47.738;7.420;2022-10-22T01:40:14;12.90;99.90
64939;DHT22;51453;47.738;7.420;2022-10-22T01:42:41;12.80;99.90
64939;DHT22;51453;47.738;7.420;2022-10-22T01:45:11;12.80;99.90
64939;DHT22;51453;47.738;7.420;2022-10-22T01:56:26;12.90;99.90
64939;DHT22;51453;47.738;7.420;2022-10-22T01:59:07;12.90;99.90
64939;DHT22;51453;47.738;7.420;2022-10-22T02:07:04;12.90;99.90
64939;DHT22;51453;47.738;7.420;2022-10-22T02:09:30;12.90;99.90
64939;DHT22;51453;47.738;7.420;2022-10-22T02:11:57;12.90;99.90
64939;DHT22;51453;47.738;7.420;2022-10-22T02:14:24;13.00;99.90
64939;DHT22;51453;47.738;7.420;2022-10-22T02:16:52;13.00;99.90
64939;DHT22;51453;47.738;7.420;2022-10-22T02:22:13;13.00;99.90
64939;DHT22;51453;47.738;7.420;2022-10-22T02:24:38;13.00;99.90
64939;DHT22;51453;47.738;7.420;2022-10-22T02:27:23;13.00;99.90
64939;DHT22;51453;47.738;7.420;2022-10-22T02:30:05;13.10;99.90
64939;DHT22;51453;47.738;7.420;2022-10-22T02:32:43;13.00;99.90
64939;DHT22;51453;47.738;7.420;2022-10-22T02:35:14;12.90;99.90
64939;DHT22;51453;47.738;7.420;2022-10-22T02:37:42;13.00;99.90
64939;DHT22;51453;47.738;7.420;2022-10-22T02:40:08;13.00;99.90
64939;DHT22;51453;47.738;7.420;2022-10-22T02:42:35;13.00;99.90
64939;DHT22;51453;47.738;7.420;2022-10-22T02:45:01;12.90;99.90
64939;DHT22;51453;47.738;7.420;2022-10-22T02:47:27;12.90;99.90
64939;DHT22;51453;47.738;7.420;2022-10-22T02:49:52;12.90;99.90
64939;DHT22;51453;47.738;7.420;2022-10-22T02:52:18;12.80;99.90
64939;DHT22;51453;47.738;7.420;2022-10-22T02:54:44;12.90;99.90
64939;DHT22;51453;47.738;7.420;2022-10-22T02:57:09;12.90;99.90
64939;DHT22;51453;47.738;7.420;2022-10-22T02:59:35;12.90;99.90
64939;DHT22;51453;47.738;7.420;2022-10-22T03:02:00;12.90;99.90
64939;DHT22;51453;47.738;7.420;2022-10-22T03:04:26;12.90;99.90
64939;DHT22;51453;47.738;7.420;2022-10-22T03:06:52;12.90;99.90
64939;DHT22;51453;47.738;7.420;2022-10-22T03:09:18;12.90;99.90
64939;DHT22;51453;47.738;7.420;2022-10-22T03:11:43;12.90;99.90
64939;DHT22;51453;47.738;7.420;2022-10-22T03:14:09;12.90;99.90
64939;DHT22;51453;47.738;7.420;2022-10-22T03:16:35;12.80;99.90
64939;DHT22;51453;47.738;7.420;2022-10-22T03:19:00;12.90;99.90
64939;DHT22;51453;47.738;7.420;2022-10-22T03:21:47;12.80;99.90
64939;DHT22;51453;47.738;7.420;2022-10-22T03:24:35;12.80;99.90
64939;DHT22;51453;47.738;7.420;2022-10-22T03:27:01;12.80;99.90
64939;DHT22;51453;47.738;7.420;2022-10-22T03:29:27;12.80;99.90
64939;DHT22;51453;47.738;7.420;2022-10-22T03:31:53;12.70;99.90
64939;DHT22;51453;47.738;7.420;2022-10-22T03:34:20;12.70;99.90
64939;DHT22;51453;47.738;7.420;2022-10-22T03:36:47;12.70;99.90
64939;DHT22;51453;47.738;7.420;2022-10-22T03:39:13;12.70;99.90
64939;DHT22;51453;47.738;7.420;2022-10-22T03:41:42;12.60;99.90
64939;DHT22;51453;47.738;7.420;2022-10-22T03:44:09;12.70;99.90
64939;DHT22;51453;47.738;7.420;2022-10-22T03:46:35;12.60;99.90
64939;DHT22;51453;47.738;7.420;2022-10-22T03:49:01;12.50;99.90
64939;DHT22;51453;47.738;7.420;2022-10-22T03:51:27;12.50;99.90
64939;DHT22;51453;47.738;7.420;2022-10-22T03:53:53;12.50;99.90
64939;DHT22;51453;47.738;7.420;2022-10-22T03:56:19;12.50;99.90
64939;DHT22;51453;47.738;7.420;2022-10-22T03:58:45;12.50;99.90
64939;DHT22;51453;47.738;7.420;2022-10-22T04:01:11;12.50;99.90
64939;DHT22;51453;47.738;7.420;2022-10-22T04:03:38;12.40;99.90
64939;DHT22;51453;47.738;7.420;2022-10-22T04:06:09;12.40;99.90
64939;DHT22;51453;47.738;7.420;2022-10-22T04:08:35;12.40;99.90
64939;DHT22;51453;47.738;7.420;2022-10-22T04:11:01;12.40;99.90
64939;DHT22;51453;47.738;7.420;2022-10-22T04:13:27;12.50;99.90
64939;DHT22;51453;47.738;7.420;2022-10-22T04:15:53;12.50;99.90
64939;DHT22;51453;47.738;7.420;2022-10-22T04:18:20;12.50;99.90
64939;DHT22;51453;47.738;7.420;2022-10-22T04:20:46;12.50;99.90
64939;DHT22;51453;47.738;7.420;2022-10-22T04:23:12;12.50;99.90
64939;DHT22;51453;47.738;7.420;2022-10-22T04:25:38;12.50;99.90
64939;DHT22;51453;47.738;7.420;2022-10-22T04:28:08;12.50;99.90
64939;DHT22;51453;47.738;7.420;2022-10-22T04:30:35;12.50;99.90
64939;DHT22;51453;47.738;7.420;2022-10-22T04:33:01;12.50;99.90
64939;DHT22;51453;47.738;7.420;2022-10-22T04:35:27;12.50;99.90
64939;DHT22;51453;47.738;7.420;2022-10-22T04:37:54;12.50;99.90
64939;DHT22;51453;47.738;7.420;2022-10-22T04:40:20;12.50;99.90
64939;DHT22;51453;47.738;7.420;2022-10-22T04:42:46;12.50;99.90
64939;DHT22;51453;47.738;7.420;2022-10-22T04:45:11;12.50;99.90
64939;DHT22;51453;47.738;7.420;2022-10-22T04:47:37;12.50;99.90
64939;DHT22;51453;47.738;7.420;2022-10-22T04:50:03;12.50;99.90
64939;DHT22;51453;47.738;7.420;2022-10-22T04:52:30;12.50;99.90
64939;DHT22;51453;47.738;7.420;2022-10-22T04:54:56;12.50;99.90
64939;DHT22;51453;47.738;7.420;2022-10-22T04:57:21;12.50;99.90
64939;DHT22;51453;47.738;7.420;2022-10-22T04:59:47;12.50;99.90
64939;DHT22;51453;47.738;7.420;2022-10-22T05:02:12;12.50;99.90
64939;DHT22;51453;47.738;7.420;2022-10-22T05:04:38;12.50;99.90
64939;DHT22;51453;47.738;7.420;2022-10-22T05:07:04;12.50;99.90
64939;DHT22;51453;47.738;7.420;2022-10-22T05:09:29;12.50;99.90
64939;DHT22;51453;47.738;7.420;2022-10-22T05:11:55;12.60;99.90
64939;DHT22;51453;47.738;7.420;2022-10-22T05:14:22;12.60;99.90
64939;DHT22;51453;47.738;7.420;2022-10-22T05:16:49;12.60;99.90
64939;DHT22;51453;47.738;7.420;2022-10-22T05:19:21;12.60;99.90
64939;DHT22;51453;47.738;7.420;2022-10-22T05:21:49;12.50;99.90
64939;DHT22;51453;47.738;7.420;2022-10-22T05:24:14;12.60;99.90
64939;DHT22;51453;47.738;7.420;2022-10-22T05:26:40;12.50;99.90
64939;DHT22;51453;47.738;7.420;2022-10-22T05:29:06;12.60;99.90
64939;DHT22;51453;47.738;7.420;2022-10-22T05:31:32;12.60;99.90
64939;DHT22;51453;47.738;7.420;2022-10-22T05:33:58;12.60;99.90
64939;DHT22;51453;47.738;7.420;2022-10-22T05:36:24;12.60;99.90
64939;DHT22;51453;47.738;7.420;2022-10-22T05:38:50;12.60;99.90
64939;DHT22;51453;47.738;7.420;2022-10-22T05:41:18;12.60;99.90
64939;DHT22;51453;47.738;7.420;2022-10-22T05:43:44;12.60;99.90
64939;DHT22;51453;47.738;7.420;2022-10-22T05:46:16;12.60;99.90
64939;DHT22;51453;47.738;7.420;2022-10-22T05:48:42;12.60;99.90
64939;DHT22;51453;47.738;7.420;2022-10-22T05:51:10;12.60;99.90
64939;DHT22;51453;47.738;7.420;2022-10-22T05:53:39;12.60;99.90
64939;DHT22;51453;47.738;7.420;2022-10-22T05:56:07;12.60;99.90
64939;DHT22;51453;47.738;7.420;2022-10-22T05:58:33;12.60;99.90
64939;DHT22;51453;47.738;7.420;2022-10-22T06:03:45;12.60;99.90
64939;DHT22;51453;47.738;7.420;2022-10-22T06:08:49;12.70;99.90
64939;DHT22;51453;47.738;7.420;2022-10-22T06:11:17;12.70;99.90
64939;DHT22;51453;47.738;7.420;2022-10-22T06:13:44;12.70;99.90
64939;DHT22;51453;47.738;7.420;2022-10-22T06:16:10;12.70;99.90
64939;DHT22;51453;47.738;7.420;2022-10-22T06:18:35;12.70;99.90
64939;DHT22;51453;47.738;7.420;2022-10-22T06:21:09;12.80;99.90
64939;DHT22;51453;47.738;7.420;2022-10-22T06:23:36;12.80;99.90
64939;DHT22;51453;47.738;7.420;2022-10-22T06:26:02;12.80;99.90
64939;DHT22;51453;47.738;7.420;2022-10-22T06:28:28;12.80;99.90
64939;DHT22;51453;47.738;7.420;2022-10-22T06:30:55;12.80;99.90
64939;DHT22;51453;47.738;7.420;2022-10-22T06:33:21;12.80;99.90
64939;DHT22;51453;47.738;7.420;2022-10-22T06:35:46;12.80;99.90
64939;DHT22;51453;47.738;7.420;2022-10-22T06:38:13;12.90;99.90
64939;DHT22;51453;47.738;7.420;2022-10-22T06:40:38;12.80;99.90
64939;DHT22;51453;47.738;7.420;2022-10-22T06:43:08;12.80;99.90
64939;DHT22;51453;47.738;7.420;2022-10-22T06:45:34;12.80;99.90
64939;DHT22;51453;47.738;7.420;2022-10-22T06:47:59;12.90;99.90
64939;DHT22;51453;47.738;7.420;2022-10-22T06:50:25;12.80;99.90
64939;DHT22;51453;47.738;7.420;2022-10-22T06:52:51;12.90;99.90
64939;DHT22;51453;47.738;7.420;2022-10-22T06:55:16;12.90;99.90
64939;DHT22;51453;47.738;7.420;2022-10-22T06:57:42;12.90;99.90
64939;DHT22;51453;47.738;7.420;2022-10-22T07:00:08;12.90;99.90
64939;DHT22;51453;47.738;7.420;2022-10-22T07:02:34;12.90;99.90
64939;DHT22;51453;47.738;7.420;2022-10-22T07:04:59;12.90;99.90
64939;DHT22;51453;47.738;7.420;2022-10-22T07:07:25;13.00;99.90
64939;DHT22;51453;47.738;7.420;2022-10-22T07:09:51;13.00;99.90
64939;DHT22;51453;47.738;7.420;2022-10-22T07:12:16;13.00;99.90
64939;DHT22;51453;47.738;7.420;2022-10-22T07:14:42;13.10;99.90
64939;DHT22;51453;47.738;7.420;2022-10-22T07:17:08;13.20;99.90
64939;DHT22;51453;47.738;7.420;2022-10-22T07:19:34;13.20;99.90
64939;DHT22;51453;47.738;7.420;2022-10-22T07:22:00;13.30;99.90
64939;DHT22;51453;47.738;7.420;2022-10-22T07:24:25;13.40;99.90
64939;DHT22;51453;47.738;7.420;2022-10-22T07:26:51;13.40;99.90
64939;DHT22;51453;47.738;7.420;2022-10-22T07:29:17;13.50;99.90
64939;DHT22;51453;47.738;7.420;2022-10-22T07:31:43;13.50;99.90
64939;DHT22;51453;47.738;7.420;2022-10-22T07:34:09;13.60;99.90
64939;DHT22;51453;47.738;7.420;2022-10-22T07:36:35;13.60;99.90
64939;DHT22;51453;47.738;7.420;2022-10-22T07:39:01;13.70;99.90
64939;DHT22;51453;47.738;7.420;2022-10-22T07:41:28;13.80;99.90
64939;DHT22;51453;47.738;7.420;2022-10-22T07:43:55;13.80;99.90
64939;DHT22;51453;47.738;7.420;2022-10-22T07:46:21;13.90;99.90
64939;DHT22;51453;47.738;7.420;2022-10-22T07:48:47;13.90;99.90
64939;DHT22;51453;47.738;7.420;2022-10-22T07:51:13;14.00;99.90
64939;DHT22;51453;47.738;7.420;2022-10-22T07:53:39;14.00;99.90
64939;DHT22;51453;47.738;7.420;2022-10-22T07:56:05;14.10;99.90
64939;DHT22;51453;47.738;7.420;2022-10-22T07:58:31;14.10;99.90
64939;DHT22;51453;47.738;7.420;2022-10-22T08:00:58;14.20;99.90
64939;DHT22;51453;47.738;7.420;2022-10-22T08:03:27;14.20;99.90
64939;DHT22;51453;47.738;7.420;2022-10-22T08:05:53;14.20;99.90
64939;DHT22;51453;47.738;7.420;2022-10-22T08:08:20;14.30;99.90
64939;DHT22;51453;47.738;7.420;2022-10-22T08:10:47;14.30;99.90
64939;DHT22;51453;47.738;7.420;2022-10-22T08:13:15;14.40;99.90
64939;DHT22;51453;47.738;7.420;2022-10-22T08:15:41;14.40;99.90
64939;DHT22;51453;47.738;7.420;2022-10-22T08:18:08;14.40;99.90
64939;DHT22;51453;47.738;7.420;2022-10-22T08:20:34;14.40;99.90
64939;DHT22;51453;47.738;7.420;2022-10-22T08:22:59;14.50;99.90
64939;DHT22;51453;47.738;7.420;2022-10-22T08:25:26;14.60;99.90
64939;DHT22;51453;47.738;7.420;2022-10-22T08:27:52;14.70;99.90
64939;DHT22;51453;47.738;7.420;2022-10-22T08:30:18;14.70;99.90
64939;DHT22;51453;47.738;7.420;2022-10-22T08:32:43;14.80;99.90
64939;DHT22;51453;47.738;7.420;2022-10-22T08:35:09;14.80;99.90
64939;DHT22;51453;47.738;7.420;2022-10-22T08:37:35;14.90;99.90
64939;DHT22;51453;47.738;7.420;2022-10-22T08:40:02;15.00;99.90
64939;DHT22;51453;47.738;7.420;2022-10-22T08:42:56;15.10;99.90
64939;DHT22;51453;47.738;7.420;2022-10-22T08:51:00;15.30;99.90
64939;DHT22;51453;47.738;7.420;2022-10-22T08:53:33;15.40;99.90
64939;DHT22;51453;47.738;7.420;2022-10-22T08:56:01;15.40;99.90
64939;DHT22;51453;47.738;7.420;2022-10-22T09:01:36;15.50;99.90
64939;DHT22;51453;47.738;7.420;2022-10-22T09:06:41;15.60;99.90
64939;DHT22;51453;47.738;7.420;2022-10-22T09:09:16;15.60;99.90
64939;DHT22;51453;47.738;7.420;2022-10-22T09:11:48;15.70;99.90
64939;DHT22;51453;47.738;7.420;2022-10-22T09:14:19;15.70;99.90
64939;DHT22;51453;47.738;7.420;2022-10-22T09:20:07;15.80;99.90
64939;DHT22;51453;47.738;7.420;2022-10-22T09:22:48;15.80;99.90
64939;DHT22;51453;47.738;7.420;2022-10-22T09:25:28;15.80;99.90
64939;DHT22;51453;47.738;7.420;2022-10-22T09:27:55;15.90;99.90
64939;DHT22;51453;47.738;7.420;2022-10-22T09:30:28;15.80;99.90
64939;DHT22;51453;47.738;7.420;2022-10-22T09:35:52;16.00;99.90
64939;DHT22;51453;47.738;7.420;2022-10-22T09:38:22;16.00;99.90
64939;DHT22;51453;47.738;7.420;2022-10-22T09:40:51;16.10;99.90
64939;DHT22;51453;47.738;7.420;2022-10-22T09:43:17;16.10;99.90
64939;DHT22;51453;47.738;7.420;2022-10-22T09:45:44;16.10;99.90
64939;DHT22;51453;47.738;7.420;2022-10-22T09:50:43;16.20;99.90
64939;DHT22;51453;47.738;7.420;2022-10-22T09:55:49;16.40;99.90
64939;DHT22;51453;47.738;7.420;2022-10-22T09:58:17;16.40;99.90
64939;DHT22;51453;47.738;7.420;2022-10-22T10:00:45;16.40;99.90
64939;DHT22;51453;47.738;7.420;2022-10-22T10:03:17;16.40;99.90
64939;DHT22;51453;47.738;7.420;2022-10-22T10:05:46;16.50;99.90
64939;DHT22;51453;47.738;7.420;2022-10-22T10:08:14;16.50;99.90
64939;DHT22;51453;47.738;7.420;2022-10-22T10:10:58;16.60;99.90
64939;DHT22;51453;47.738;7.420;2022-10-22T10:25:02;16.70;99.90
64939;DHT22;51453;47.738;7.420;2022-10-22T10:27:25;16.70;99.90
64939;DHT22;51453;47.738;7.420;2022-10-22T10:40:56;17.10;99.90
64939;DHT22;51453;47.738;7.420;2022-10-22T10:44:32;17.10;99.90
64939;DHT22;51453;47.738;7.420;2022-10-22T10:49:26;17.20;99.90
64939;DHT22;51453;47.738;7.420;2022-10-22T10:52:12;17.30;99.90
64939;DHT22;51453;47.738;7.420;2022-10-22T11:00:19;17.40;99.90
64939;DHT22;51453;47.738;7.420;2022-10-22T11:05:41;17.50;99.90
64939;DHT22;51453;47.738;7.420;2022-10-22T11:08:15;17.50;99.90
64939;DHT22;51453;47.738;7.420;2022-10-22T11:10:45;17.60;99.90
64939;DHT22;51453;47.738;7.420;2022-10-22T11:18:37;17.70;99.90
64939;DHT22;51453;47.738;7.420;2022-10-22T11:26:47;17.90;99.90
64939;DHT22;51453;47.738;7.420;2022-10-22T11:29:18;17.90;99.90
64939;DHT22;51453;47.738;7.420;2022-10-22T11:31:45;18.00;99.90
64939;DHT22;51453;47.738;7.420;2022-10-22T11:34:37;18.00;99.90
64939;DHT22;51453;47.738;7.420;2022-10-22T11:37:02;18.20;99.90
64939;DHT22;51453;47.738;7.420;2022-10-22T11:42:22;18.30;99.90
64939;DHT22;51453;47.738;7.420;2022-10-22T11:47:26;18.20;99.90
64939;DHT22;51453;47.738;7.420;2022-10-22T11:49:59;18.30;99.90
64939;DHT22;51453;47.738;7.420;2022-10-22T11:55:02;18.40;99.90
64939;DHT22;51453;47.738;7.420;2022-10-22T11:57:38;18.50;99.90
64939;DHT22;51453;47.738;7.420;2022-10-22T12:00:39;18.60;99.90
64939;DHT22;51453;47.738;7.420;2022-10-22T12:08:57;19.10;99.90
64939;DHT22;51453;47.738;7.420;2022-10-22T12:21:58;19.20;99.90
64939;DHT22;51453;47.738;7.420;2022-10-22T12:24:24;19.10;99.90
64939;DHT22;51453;47.738;7.420;2022-10-22T12:26:53;19.20;99.90
64939;DHT22;51453;47.738;7.420;2022-10-22T12:29:21;19.30;99.90
64939;DHT22;51453;47.738;7.420;2022-10-22T12:31:51;19.30;99.90
64939;DHT22;51453;47.738;7.420;2022-10-22T12:34:20;19.30;99.90
64939;DHT22;51453;47.738;7.420;2022-10-22T12:36:48;19.40;99.90
64939;DHT22;51453;47.738;7.420;2022-10-22T12:39:26;19.40;99.90
64939;DHT22;51453;47.738;7.420;2022-10-22T12:41:53;19.40;99.90
64939;DHT22;51453;47.738;7.420;2022-10-22T12:44:19;19.40;99.90
64939;DHT22;51453;47.738;7.420;2022-10-22T12:46:46;19.40;99.90
64939;DHT22;51453;47.738;7.420;2022-10-22T12:49:19;19.40;99.90
64939;DHT22;51453;47.738;7.420;2022-10-22T12:51:46;19.40;99.90
64939;DHT22;51453;47.738;7.420;2022-10-22T12:54:39;19.50;99.90
64939;DHT22;51453;47.738;7.420;2022-10-22T12:57:05;19.60;99.90
64939;DHT22;51453;47.738;7.420;2022-10-22T12:59:36;19.50;99.90
64939;DHT22;51453;47.738;7.420;2022-10-22T13:02:21;19.60;99.90
64939;DHT22;51453;47.738;7.420;2022-10-22T13:05:23;19.60;99.90
64939;DHT22;51453;47.738;7.420;2022-10-22T13:08:04;19.70;99.90
64939;DHT22;51453;47.738;7.420;2022-10-22T13:10:35;19.80;99.90
64939;DHT22;51453;47.738;7.420;2022-10-22T13:13:02;19.70;99.90
64939;DHT22;51453;47.738;7.420;2022-10-22T13:15:32;19.80;99.90
64939;DHT22;51453;47.738;7.420;2022-10-22T13:18:16;19.80;99.90
64939;DHT22;51453;47.738;7.420;2022-10-22T13:20:56;19.80;99.90
64939;DHT22;51453;47.738;7.420;2022-10-22T13:23:25;19.80;99.90
64939;DHT22;51453;47.738;7.420;2022-10-22T13:26:03;19.80;99.90
64939;DHT22;51453;47.738;7.420;2022-10-22T13:28:32;19.80;99.90
64939;DHT22;51453;47.738;7.420;2022-10-22T13:31:00;19.90;99.90
64939;DHT22;51453;47.738;7.420;2022-10-22T13:33:33;19.80;99.90
64939;DHT22;51453;47.738;7.420;2022-10-22T13:36:00;19.80;99.90
64939;DHT22;51453;47.738;7.420;2022-10-22T13:38:26;19.80;99.90
64939;DHT22;51453;47.738;7.420;2022-10-22T13:40:53;19.80;99.90
64939;DHT22;51453;47.738;7.420;2022-10-22T13:43:19;19.90;99.90
64939;DHT22;51453;47.738;7.420;2022-10-22T13:45:46;19.90;99.90
64939;DHT22;51453;47.738;7.420;2022-10-22T13:48:17;19.90;99.90
64939;DHT22;51453;47.738;7.420;2022-10-22T13:50:47;20.00;99.90
64939;DHT22;51453;47.738;7.420;2022-10-22T13:53:19;19.90;99.90
64939;DHT22;51453;47.738;7.420;2022-10-22T13:55:46;19.80;99.90
64939;DHT22;51453;47.738;7.420;2022-10-22T13:58:14;19.80;99.90
64939;DHT22;51453;47.738;7.420;2022-10-22T14:00:44;19.80;99.90
64939;DHT22;51453;47.738;7.420;2022-10-22T14:03:12;19.80;99.90
64939;DHT22;51453;47.738;7.420;2022-10-22T14:05:38;19.80;99.90
64939;DHT22;51453;47.738;7.420;2022-10-22T14:08:12;19.80;99.90
64939;DHT22;51453;47.738;7.420;2022-10-22T14:10:38;19.90;99.90
64939;DHT22;51453;47.738;7.420;2022-10-22T14:13:09;19.90;99.90
64939;DHT22;51453;47.738;7.420;2022-10-22T14:15:36;20.00;99.90
64939;DHT22;51453;47.738;7.420;2022-10-22T14:18:03;20.00;99.90
64939;DHT22;51453;47.738;7.420;2022-10-22T14:20:32;19.90;99.90
64939;DHT22;51453;47.738;7.420;2022-10-22T14:23:26;19.90;99.90
64939;DHT22;51453;47.738;7.420;2022-10-22T14:25:53;19.80;99.90
64939;DHT22;51453;47.738;7.420;2022-10-22T14:28:18;19.80;99.90
64939;DHT22;51453;47.738;7.420;2022-10-22T14:30:45;19.80;99.90
64939;DHT22;51453;47.738;7.420;2022-10-22T14:33:23;19.70;99.90
64939;DHT22;51453;47.738;7.420;2022-10-22T14:35:49;19.60;99.90
64939;DHT22;51453;47.738;7.420;2022-10-22T14:38:16;19.60;99.90
64939;DHT22;51453;47.738;7.420;2022-10-22T14:40:42;19.60;99.90
64939;DHT22;51453;47.738;7.420;2022-10-22T14:43:21;19.70;99.90
64939;DHT22;51453;47.738;7.420;2022-10-22T14:45:47;19.70;99.90
64939;DHT22;51453;47.738;7.420;2022-10-22T14:48:13;19.80;99.90
64939;DHT22;51453;47.738;7.420;2022-10-22T14:50:41;19.80;99.90
64939;DHT22;51453;47.738;7.420;2022-10-22T14:53:06;19.80;99.90
64939;DHT22;51453;47.738;7.420;2022-10-22T14:55:32;19.70;99.90
64939;DHT22;51453;47.738;7.420;2022-10-22T14:57:57;19.70;99.90
64939;DHT22;51453;47.738;7.420;2022-10-22T15:00:23;19.80;99.90
64939;DHT22;51453;47.738;7.420;2022-10-22T15:02:49;19.80;99.90
64939;DHT22;51453;47.738;7.420;2022-10-22T15:05:15;19.70;99.90
64939;DHT22;51453;47.738;7.420;2022-10-22T15:07:42;19.60;99.90
64939;DHT22;51453;47.738;7.420;2022-10-22T15:10:09;19.60;99.90
64939;DHT22;51453;47.738;7.420;2022-10-22T15:12:35;19.60;99.90
64939;DHT22;51453;47.738;7.420;2022-10-22T15:15:00;19.50;99.90
64939;DHT22;51453;47.738;7.420;2022-10-22T15:17:26;19.40;99.90
64939;DHT22;51453;47.738;7.420;2022-10-22T15:19:52;19.40;99.90
64939;DHT22;51453;47.738;7.420;2022-10-22T15:22:18;19.20;99.90
64939;DHT22;51453;47.738;7.420;2022-10-22T15:24:44;19.10;99.90
64939;DHT22;51453;47.738;7.420;2022-10-22T15:27:13;19.10;99.90
64939;DHT22;51453;47.738;7.420;2022-10-22T15:29:39;19.10;99.90
64939;DHT22;51453;47.738;7.420;2022-10-22T15:32:05;19.10;99.90
64939;DHT22;51453;47.738;7.420;2022-10-22T15:34:33;19.00;99.90
64939;DHT22;51453;47.738;7.420;2022-10-22T15:37:01;18.90;99.90
64939;DHT22;51453;47.738;7.420;2022-10-22T15:39:27;18.80;99.90
64939;DHT22;51453;47.738;7.420;2022-10-22T15:41:53;18.80;99.90
64939;DHT22;51453;47.738;7.420;2022-10-22T15:44:24;18.70;99.90
64939;DHT22;51453;47.738;7.420;2022-10-22T15:46:51;18.60;99.90
64939;DHT22;51453;47.738;7.420;2022-10-22T15:49:17;18.50;99.90
64939;DHT22;51453;47.738;7.420;2022-10-22T15:51:43;18.40;99.90
64939;DHT22;51453;47.738;7.420;2022-10-22T15:54:17;18.20;99.90
64939;DHT22;51453;47.738;7.420;2022-10-22T15:56:44;18.20;99.90
64939;DHT22;51453;47.738;7.420;2022-10-22T15:59:11;18.10;99.90
64939;DHT22;51453;47.738;7.420;2022-10-22T16:01:37;18.10;99.90
64939;DHT22;51453;47.738;7.420;2022-10-22T16:04:04;18.00;99.90
64939;DHT22;51453;47.738;7.420;2022-10-22T16:06:37;17.90;99.90
64939;DHT22;51453;47.738;7.420;2022-10-22T16:09:06;17.80;99.90
64939;DHT22;51453;47.738;7.420;2022-10-22T16:11:32;17.80;99.90
64939;DHT22;51453;47.738;7.420;2022-10-22T16:13:59;17.70;99.90
64939;DHT22;51453;47.738;7.420;2022-10-22T16:16:27;17.60;99.90
64939;DHT22;51453;47.738;7.420;2022-10-22T16:18:53;17.40;99.90
64939;DHT22;51453;47.738;7.420;2022-10-22T16:21:20;17.40;99.90
64939;DHT22;51453;47.738;7.420;2022-10-22T16:23:46;17.30;99.90
64939;DHT22;51453;47.738;7.420;2022-10-22T16:26:12;17.10;99.90
64939;DHT22;51453;47.738;7.420;2022-10-22T16:28:39;17.00;99.90
64939;DHT22;51453;47.738;7.420;2022-10-22T16:31:07;16.90;99.90
64939;DHT22;51453;47.738;7.420;2022-10-22T16:33:34;16.70;99.90
64939;DHT22;51453;47.738;7.420;2022-10-22T16:36:00;16.60;99.90
64939;DHT22;51453;47.738;7.420;2022-10-22T16:38:26;16.50;99.90
64939;DHT22;51453;47.738;7.420;2022-10-22T16:40:52;16.50;99.90
64939;DHT22;51453;47.738;7.420;2022-10-22T16:43:17;16.30;99.90
64939;DHT22;51453;47.738;7.420;2022-10-22T16:45:47;16.30;99.90
64939;DHT22;51453;47.738;7.420;2022-10-22T16:48:14;16.20;99.90
64939;DHT22;51453;47.738;7.420;2022-10-22T16:50:39;16.10;99.90
64939;DHT22;51453;47.738;7.420;2022-10-22T16:53:05;16.00;99.90
64939;DHT22;51453;47.738;7.420;2022-10-22T16:55:35;15.90;99.90
64939;DHT22;51453;47.738;7.420;2022-10-22T16:58:01;15.80;99.90
64939;DHT22;51453;47.738;7.420;2022-10-22T17:00:27;15.70;99.90
64939;DHT22;51453;47.738;7.420;2022-10-22T17:02:53;15.70;99.90
64939;DHT22;51453;47.738;7.420;2022-10-22T17:05:19;15.60;99.90
64939;DHT22;51453;47.738;7.420;2022-10-22T17:07:45;15.60;99.90
64939;DHT22;51453;47.738;7.420;2022-10-22T17:10:10;15.50;99.90
64939;DHT22;51453;47.738;7.420;2022-10-22T17:12:36;15.40;99.90
64939;DHT22;51453;47.738;7.420;2022-10-22T17:15:05;15.30;99.90
64939;DHT22;51453;47.738;7.420;2022-10-22T17:17:31;15.30;99.90
64939;DHT22;51453;47.738;7.420;2022-10-22T17:19:57;15.20;99.90
64939;DHT22;51453;47.738;7.420;2022-10-22T17:22:23;15.10;99.90
64939;DHT22;51453;47.738;7.420;2022-10-22T17:25:15;15.10;99.90
64939;DHT22;51453;47.738;7.420;2022-10-22T17:27:42;15.10;99.90
64939;DHT22;51453;47.738;7.420;2022-10-22T17:30:09;15.10;99.90
64939;DHT22;51453;47.738;7.420;2022-10-22T17:32:37;15.00;99.90
64939;DHT22;51453;47.738;7.420;2022-10-22T17:35:05;15.00;99.90
64939;DHT22;51453;47.738;7.420;2022-10-22T17:37:31;15.00;99.90
64939;DHT22;51453;47.738;7.420;2022-10-22T17:39:57;15.00;99.90
64939;DHT22;51453;47.738;7.420;2022-10-22T17:42:23;14.90;99.90
64939;DHT22;51453;47.738;7.420;2022-10-22T17:44:49;14.90;99.90
64939;DHT22;51453;47.738;7.420;2022-10-22T17:47:14;14.90;99.90
64939;DHT22;51453;47.738;7.420;2022-10-22T17:49:40;14.90;99.90
64939;DHT22;51453;47.738;7.420;2022-10-22T17:52:06;14.90;99.90